Date,TemperatureHighF,TemperatureAvgF,TemperatureLowF,DewpointHighF,DewpointAvgF,DewpointLowF,HumidityHigh,HumidityAvg,HumidityLow,PressureMaxIn,PressureMinIn,WindSpeedMaxMPH,WindSpeedAvgMPH,GustSpeedMaxMPH,PrecipitationSumIn
2013-1-1,47.0,45.4,43.2,44.0,37.0,29.5,89,73,54,29.69,29.51,7,1,7,0.00
2013-1-2,48.2,43.8,39.6,43.5,37.5,31.0,90,79,66,29.79,29.53,9,2,9,0.00
2013-1-3,42.5,38.5,33.3,33.7,30.6,27.6,82,73,69,29.86,29.74,5,1,5,0.00
2013-1-4,48.8,38.2,30.6,29.3,24.7,20.5,80,60,41,29.91,29.79,10,2,10,0.00
2013-1-5,49.5,40.2,28.3,30.9,25.1,19.3,70,56,44,29.98,29.81,6,1,6,0.00
2013-1-6,53.6,44.8,39.4,40.7,33.8,27.6,75,65,53,29.82,29.64,5,1,5,0.00
2013-1-7,51.1,42.1,34.4,33.9,29.5,25.4,71,61,49,30.03,29.78,11,1,11,0.00
2013-1-8,54.0,42.3,29.5,41.3,33.4,23.3,82,71,61,30.05,29.96,5,0,5,0.00
2013-1-9,64.8,51.3,38.9,53.8,44.1,34.2,86,77,66,30.05,29.96,6,1,6,0.00
2013-1-10,60.8,52.8,47.7,47.2,40.8,36.1,84,65,42,30.15,30.01,9,1,9,0.49
2013-1-11,47.9,43.3,40.1,43.7,38.7,36.2,92,84,65,30.02,29.75,6,1,6,0.14
2013-1-12,65.0,55.4,46.1,60.2,52.5,43.7,93,90,83,29.77,29.69,4,1,4,0.00
2013-1-13,72.2,63.5,55.4,63.7,57.8,52.9,93,82,68,29.72,29.63,8,2,8,0.01
2013-1-14,63.5,59.6,50.0,60.5,56.5,47.4,92,90,82,29.82,29.67,12,2,12,1.14
2013-1-15,50.0,43.6,40.1,47.4,41.5,38.1,94,92,91,29.85,29.68,12,4,12,0.59
2013-1-16,48.2,42.4,38.5,46.6,40.6,36.6,94,93,93,29.68,29.56,5,1,6,0.48
2013-1-17,48.4,43.2,33.5,46.8,41.4,31.3,94,93,91,29.67,29.52,13,4,13,1.67
2013-1-22,35.5,29.9,24.8,5.7,4.5,2.9,41,34,26,29.86,29.76,8,1,8,0.00
2013-1-23,40.9,30.5,20.7,19.4,11.6,3.4,54,45,36,29.93,29.62,8,1,8,0.00
2013-1-24,36.4,31.3,23.4,20.9,13.2,5.1,63,48,35,30.09,29.55,12,2,12,0.00
2013-1-25,26.3,24.0,22.0,21.5,14.3,4.6,82,67,45,30.10,29.69,6,1,6,0.00
2013-1-26,37.8,34.2,25.7,30.2,26.8,21.2,84,74,70,29.99,29.76,6,1,6,0.08
2013-1-27,39.8,34.2,26.3,28.4,24.9,18.7,75,69,63,30.17,30.00,6,1,6,0.00
2013-1-28,50.2,40.8,34.0,41.7,34.3,26.5,85,78,60,30.06,29.81,7,2,7,0.03
2013-1-29,64.1,54.4,44.5,55.6,48.3,41.1,89,80,72,29.81,29.64,6,2,6,0.00
2013-1-30,70.9,65.4,56.3,63.0,59.5,52.2,90,81,66,29.64,28.99,17,4,17,1.06
2013-1-31,56.3,43.5,36.7,52.2,30.3,21.8,89,61,41,29.58,29.03,11,3,15,0.10
2013-2-1,38.2,33.5,25.9,26.3,14.7,8.2,63,46,34,29.97,29.43,14,3,14,0.00
2013-2-2,39.2,31.8,21.2,27.3,14.7,8.4,73,49,38,29.97,29.61,9,1,9,0.00
2013-2-3,44.6,34.8,32.6,31.7,27.3,25.8,78,74,57,29.62,29.51,6,1,6,0.00
2013-2-8,55.8,46.3,39.6,41.2,31.4,27.1,61,56,46,29.67,29.43,9,4,9,0.00
2013-2-9,53.1,42.5,32.6,27.4,23.1,17.3,66,48,31,29.95,29.66,10,1,10,0.00
2013-2-10,51.5,40.9,30.6,34.4,23.0,16.5,74,50,33,30.07,29.78,8,1,8,0.07
2013-2-11,55.3,48.2,41.4,52.5,44.1,34.6,92,86,74,29.78,29.52,8,1,8,0.07
2013-2-12,60.8,52.0,42.3,47.2,33.1,28.5,86,50,34,29.69,29.53,7,1,7,0.02
2013-2-13,49.3,44.2,37.3,42.7,39.5,32.9,90,84,60,29.58,29.24,5,1,5,0.27
2013-2-14,52.9,42.5,32.0,38.3,32.2,27.6,85,68,46,29.66,29.44,6,1,6,0.01
2013-2-15,61.6,48.1,34.9,44.2,33.9,28.9,82,60,38,29.69,29.51,8,1,8,0.00
2013-2-16,42.7,37.4,30.4,32.7,26.9,15.5,77,66,52,29.59,29.43,8,2,8,0.00
2013-2-17,37.8,30.8,24.8,16.7,11.8,8.5,62,46,33,29.86,29.53,13,2,13,0.00
2013-2-18,52.9,38.7,21.8,27.0,18.8,8.0,62,46,33,29.96,29.78,7,1,7,0.00
2013-2-19,45.4,40.8,37.4,41.0,31.8,22.4,88,71,49,29.79,29.46,10,2,10,0.18
2013-2-20,52.0,41.2,32.8,23.0,18.7,14.0,52,42,24,29.67,29.58,14,2,14,0.00